CMB847 Details

Departure: Bahrain International Airport (OBBI)
Arrival: Diego Garcia (FJDG) at N/A
Route: TULUB N685 RURAL B415 SIXIV N318 TOLDA P570 KITAL L516 NKW
Notes: USTRANSCOM CONTRACT FLIGHT


Current Weather Information
OBBI 171700Z 33007KT CAVOK 35/21 Q0998 NOSIG
FJDG 171655Z 09006KT 9999 FEW019 SCT100 BKN250 28/26 A2986 RMK SLP108 T02810262